Pagrindinis puslapis
METAR-TAF:

METAR-TAF

Oro uostai :

Mason Jewett Field

Mason, Mičiganas, Jungtinės Amerikos Valstijos

platuma: 42-33-57N, ilguma: 084-25-24W, Aukštis: 280 m

Dabartinis oras

Ataskaita buvo paskelbta 28 minutes, ne 20:55 UTC
Vėjas 5 kt iš Rytų
Temperatūra 9°C
Drėgmė 93%
Slėgis 1008 hPa
Matomumas: 16.1 km
Apsiniaukę ne aukštis 600 ft

METAR: KTEW 282055Z AUTO 08005KT 10SM OVC006 09/08 A2978 RMK AO2 T00920081

Laikas: 17:23 (21:23 UTC)


TAF: trūkstamas

Orai ataskaitas ir orų prognozės (METAR, TAF).

turimą stotys yra geltonos ir raudonos taškus žemėlapyje.

Perkelti pele per norėdami pamatyti stoties vardą.

Tada spustelėkite, norėdami matyti oro stebėjimo ir prognozės.

Norėdami pakeisti žemėlapį: spustelėkite ant žalios mygtukų su juodo kryžiaus žemyn,; žalią mygtuką su brūkšneliu, jei norite nutolinti; arba žalių rodyklių gretimoms žemėlapius.


METAR-TAF: